sensor_id;sensor_type;location;lat;lon;timestamp;temperature;humidity
7576;DHT22;3829;50.798;4.358;2023-01-24T00:00:05;3.10;99.90
7576;DHT22;3829;50.798;4.358;2023-01-24T00:02:31;3.10;99.90
7576;DHT22;3829;50.798;4.358;2023-01-24T00:04:56;3.00;99.90
7576;DHT22;3829;50.798;4.358;2023-01-24T00:07:22;3.00;99.90
7576;DHT22;3829;50.798;4.358;2023-01-24T00:09:48;2.90;99.90
7576;DHT22;3829;50.798;4.358;2023-01-24T00:12:13;3.00;99.90
7576;DHT22;3829;50.798;4.358;2023-01-24T00:14:39;3.00;99.90
7576;DHT22;3829;50.798;4.358;2023-01-24T00:17:04;3.10;99.90
7576;DHT22;3829;50.798;4.358;2023-01-24T00:19:30;3.10;99.90
7576;DHT22;3829;50.798;4.358;2023-01-24T00:21:55;3.10;99.90
7576;DHT22;3829;50.798;4.358;2023-01-24T00:24:21;3.10;99.90
7576;DHT22;3829;50.798;4.358;2023-01-24T00:26:46;3.20;99.90
7576;DHT22;3829;50.798;4.358;2023-01-24T00:29:12;3.20;99.90
7576;DHT22;3829;50.798;4.358;2023-01-24T00:31:38;3.20;99.90
7576;DHT22;3829;50.798;4.358;2023-01-24T00:34:03;3.10;99.90
7576;DHT22;3829;50.798;4.358;2023-01-24T00:36:29;3.20;99.90
7576;DHT22;3829;50.798;4.358;2023-01-24T00:38:54;3.20;99.90
7576;DHT22;3829;50.798;4.358;2023-01-24T00:41:20;3.20;99.90
7576;DHT22;3829;50.798;4.358;2023-01-24T00:43:46;3.20;99.90
7576;DHT22;3829;50.798;4.358;2023-01-24T00:46:11;3.20;99.90
7576;DHT22;3829;50.798;4.358;2023-01-24T00:48:37;3.30;99.90
7576;DHT22;3829;50.798;4.358;2023-01-24T00:51:03;3.40;99.90
7576;DHT22;3829;50.798;4.358;2023-01-24T00:53:29;3.40;99.90
7576;DHT22;3829;50.798;4.358;2023-01-24T00:55:55;3.40;99.90
7576;DHT22;3829;50.798;4.358;2023-01-24T00:58:21;3.40;99.90
7576;DHT22;3829;50.798;4.358;2023-01-24T01:00:47;3.30;99.90
7576;DHT22;3829;50.798;4.358;2023-01-24T01:03:16;3.20;99.90
7576;DHT22;3829;50.798;4.358;2023-01-24T01:05:43;3.30;99.90
7576;DHT22;3829;50.798;4.358;2023-01-24T01:08:09;3.30;99.90
7576;DHT22;3829;50.798;4.358;2023-01-24T01:10:35;3.40;99.90
7576;DHT22;3829;50.798;4.358;2023-01-24T01:13:01;3.40;99.90
7576;DHT22;3829;50.798;4.358;2023-01-24T01:15:27;3.30;99.90
7576;DHT22;3829;50.798;4.358;2023-01-24T01:17:53;3.20;99.90
7576;DHT22;3829;50.798;4.358;2023-01-24T01:20:19;3.20;99.90
7576;DHT22;3829;50.798;4.358;2023-01-24T01:22:44;3.10;99.90
7576;DHT22;3829;50.798;4.358;2023-01-24T01:25:10;3.10;99.90
7576;DHT22;3829;50.798;4.358;2023-01-24T01:27:35;3.10;99.90
7576;DHT22;3829;50.798;4.358;2023-01-24T01:30:01;3.20;99.90
7576;DHT22;3829;50.798;4.358;2023-01-24T01:32:26;3.20;99.90
7576;DHT22;3829;50.798;4.358;2023-01-24T01:34:52;3.20;99.90
7576;DHT22;3829;50.798;4.358;2023-01-24T01:37:18;3.10;99.90
7576;DHT22;3829;50.798;4.358;2023-01-24T01:39:43;3.10;99.90
7576;DHT22;3829;50.798;4.358;2023-01-24T01:42:09;3.10;99.90
7576;DHT22;3829;50.798;4.358;2023-01-24T01:44:34;3.10;99.90
7576;DHT22;3829;50.798;4.358;2023-01-24T01:47:16;3.20;99.90
7576;DHT22;3829;50.798;4.358;2023-01-24T01:49:55;3.20;99.90
7576;DHT22;3829;50.798;4.358;2023-01-24T01:52:25;3.20;99.90
7576;DHT22;3829;50.798;4.358;2023-01-24T01:54:57;3.20;99.90
7576;DHT22;3829;50.798;4.358;2023-01-24T01:57:28;3.20;99.90
7576;DHT22;3829;50.798;4.358;2023-01-24T02:00:04;3.20;99.90
7576;DHT22;3829;50.798;4.358;2023-01-24T02:02:31;3.20;99.90
7576;DHT22;3829;50.798;4.358;2023-01-24T02:05:04;3.30;99.90
7576;DHT22;3829;50.798;4.358;2023-01-24T02:07:48;3.10;99.90
7576;DHT22;3829;50.798;4.358;2023-01-24T02:10:17;3.10;99.90
7576;DHT22;3829;50.798;4.358;2023-01-24T02:12:46;3.20;99.90
7576;DHT22;3829;50.798;4.358;2023-01-24T02:15:15;3.10;99.90
7576;DHT22;3829;50.798;4.358;2023-01-24T02:18:00;3.20;99.90
7576;DHT22;3829;50.798;4.358;2023-01-24T02:28:24;3.20;99.90
7576;DHT22;3829;50.798;4.358;2023-01-24T02:30:50;3.30;99.90
7576;DHT22;3829;50.798;4.358;2023-01-24T02:33:20;3.20;99.90
7576;DHT22;3829;50.798;4.358;2023-01-24T02:35:46;3.20;99.90
7576;DHT22;3829;50.798;4.358;2023-01-24T02:40:46;3.00;99.90
7576;DHT22;3829;50.798;4.358;2023-01-24T02:43:14;3.10;99.90
7576;DHT22;3829;50.798;4.358;2023-01-24T02:45:42;3.10;99.90
7576;DHT22;3829;50.798;4.358;2023-01-24T02:48:07;3.00;99.90
7576;DHT22;3829;50.798;4.358;2023-01-24T02:50:33;3.00;99.90
7576;DHT22;3829;50.798;4.358;2023-01-24T02:53:19;3.00;99.90
7576;DHT22;3829;50.798;4.358;2023-01-24T02:56:02;3.00;99.90
7576;DHT22;3829;50.798;4.358;2023-01-24T02:58:46;3.00;99.90
7576;DHT22;3829;50.798;4.358;2023-01-24T03:01:12;3.00;99.90
7576;DHT22;3829;50.798;4.358;2023-01-24T03:03:41;3.00;99.90
7576;DHT22;3829;50.798;4.358;2023-01-24T03:06:07;3.00;99.90
7576;DHT22;3829;50.798;4.358;2023-01-24T03:08:33;3.00;99.90
7576;DHT22;3829;50.798;4.358;2023-01-24T03:10:59;3.00;99.90
7576;DHT22;3829;50.798;4.358;2023-01-24T03:13:25;3.00;99.90
7576;DHT22;3829;50.798;4.358;2023-01-24T03:16:09;3.00;99.90
7576;DHT22;3829;50.798;4.358;2023-01-24T03:18:54;3.00;99.90
7576;DHT22;3829;50.798;4.358;2023-01-24T03:21:39;3.00;99.90
7576;DHT22;3829;50.798;4.358;2023-01-24T03:24:23;3.00;99.90
7576;DHT22;3829;50.798;4.358;2023-01-24T03:27:08;3.00;99.90
7576;DHT22;3829;50.798;4.358;2023-01-24T03:29:52;3.00;99.90
7576;DHT22;3829;50.798;4.358;2023-01-24T03:32:36;3.00;99.90
7576;DHT22;3829;50.798;4.358;2023-01-24T03:35:21;3.10;99.90
7576;DHT22;3829;50.798;4.358;2023-01-24T03:37:46;3.10;99.90
7576;DHT22;3829;50.798;4.358;2023-01-24T03:40:31;3.10;99.90
7576;DHT22;3829;50.798;4.358;2023-01-24T03:42:58;3.00;99.90
7576;DHT22;3829;50.798;4.358;2023-01-24T03:45:26;3.00;99.90
7576;DHT22;3829;50.798;4.358;2023-01-24T03:47:54;3.10;99.90
7576;DHT22;3829;50.798;4.358;2023-01-24T03:50:31;3.10;99.90
7576;DHT22;3829;50.798;4.358;2023-01-24T03:53:17;3.20;99.90
7576;DHT22;3829;50.798;4.358;2023-01-24T03:55:43;3.20;99.90
7576;DHT22;3829;50.798;4.358;2023-01-24T03:58:09;3.20;99.90
7576;DHT22;3829;50.798;4.358;2023-01-24T04:00:36;3.20;99.90
7576;DHT22;3829;50.798;4.358;2023-01-24T04:03:02;3.30;99.90
7576;DHT22;3829;50.798;4.358;2023-01-24T04:05:28;3.30;99.90
7576;DHT22;3829;50.798;4.358;2023-01-24T04:07:54;3.30;99.90
7576;DHT22;3829;50.798;4.358;2023-01-24T04:10:20;3.20;99.90
7576;DHT22;3829;50.798;4.358;2023-01-24T04:12:46;3.20;99.90
7576;DHT22;3829;50.798;4.358;2023-01-24T04:15:18;3.20;99.90
7576;DHT22;3829;50.798;4.358;2023-01-24T04:17:44;3.10;99.90
7576;DHT22;3829;50.798;4.358;2023-01-24T04:20:10;3.10;99.90
7576;DHT22;3829;50.798;4.358;2023-01-24T04:22:36;3.00;99.90
7576;DHT22;3829;50.798;4.358;2023-01-24T04:25:01;3.00;99.90
7576;DHT22;3829;50.798;4.358;2023-01-24T04:27:27;3.10;99.90
7576;DHT22;3829;50.798;4.358;2023-01-24T04:29:52;3.00;99.90
7576;DHT22;3829;50.798;4.358;2023-01-24T04:32:18;3.10;99.90
7576;DHT22;3829;50.798;4.358;2023-01-24T04:34:44;3.10;99.90
7576;DHT22;3829;50.798;4.358;2023-01-24T04:37:09;3.20;99.90
7576;DHT22;3829;50.798;4.358;2023-01-24T04:39:35;3.20;99.90
7576;DHT22;3829;50.798;4.358;2023-01-24T04:42:00;3.20;99.90
7576;DHT22;3829;50.798;4.358;2023-01-24T04:44:26;3.20;99.90
7576;DHT22;3829;50.798;4.358;2023-01-24T04:46:51;3.30;99.90
7576;DHT22;3829;50.798;4.358;2023-01-24T04:49:17;3.20;99.90
7576;DHT22;3829;50.798;4.358;2023-01-24T04:51:43;3.20;99.90
7576;DHT22;3829;50.798;4.358;2023-01-24T04:54:10;3.10;99.90
7576;DHT22;3829;50.798;4.358;2023-01-24T04:56:36;3.10;99.90
7576;DHT22;3829;50.798;4.358;2023-01-24T04:59:02;3.10;99.90
7576;DHT22;3829;50.798;4.358;2023-01-24T05:01:27;3.00;99.90
7576;DHT22;3829;50.798;4.358;2023-01-24T05:03:53;3.10;99.90
7576;DHT22;3829;50.798;4.358;2023-01-24T05:06:25;3.10;99.90
7576;DHT22;3829;50.798;4.358;2023-01-24T05:08:52;3.00;99.90
7576;DHT22;3829;50.798;4.358;2023-01-24T05:11:17;3.00;99.90
7576;DHT22;3829;50.798;4.358;2023-01-24T05:13:43;3.00;99.90
7576;DHT22;3829;50.798;4.358;2023-01-24T05:16:08;3.00;99.90
7576;DHT22;3829;50.798;4.358;2023-01-24T05:18:34;3.00;99.90
7576;DHT22;3829;50.798;4.358;2023-01-24T05:21:26;3.10;99.90
7576;DHT22;3829;50.798;4.358;2023-01-24T05:23:52;3.10;99.90
7576;DHT22;3829;50.798;4.358;2023-01-24T05:26:23;3.20;99.90
7576;DHT22;3829;50.798;4.358;2023-01-24T05:28:49;3.20;99.90
7576;DHT22;3829;50.798;4.358;2023-01-24T05:31:15;3.10;99.90
7576;DHT22;3829;50.798;4.358;2023-01-24T05:33:41;3.00;99.90
7576;DHT22;3829;50.798;4.358;2023-01-24T05:36:12;3.00;99.90
7576;DHT22;3829;50.798;4.358;2023-01-24T05:38:39;3.10;99.90
7576;DHT22;3829;50.798;4.358;2023-01-24T05:41:07;3.10;99.90
7576;DHT22;3829;50.798;4.358;2023-01-24T05:43:33;3.20;99.90
7576;DHT22;3829;50.798;4.358;2023-01-24T05:46:00;2.90;99.90
7576;DHT22;3829;50.798;4.358;2023-01-24T05:48:26;3.00;99.90
7576;DHT22;3829;50.798;4.358;2023-01-24T05:51:00;3.00;99.90
7576;DHT22;3829;50.798;4.358;2023-01-24T05:53:27;3.00;99.90
7576;DHT22;3829;50.798;4.358;2023-01-24T05:55:57;3.00;99.90
7576;DHT22;3829;50.798;4.358;2023-01-24T05:58:24;3.10;99.90
7576;DHT22;3829;50.798;4.358;2023-01-24T06:00:51;3.20;99.90
7576;DHT22;3829;50.798;4.358;2023-01-24T06:03:17;3.30;99.90
7576;DHT22;3829;50.798;4.358;2023-01-24T06:05:47;3.00;99.90
7576;DHT22;3829;50.798;4.358;2023-01-24T06:08:14;3.00;99.90
7576;DHT22;3829;50.798;4.358;2023-01-24T06:10:40;2.90;99.90
7576;DHT22;3829;50.798;4.358;2023-01-24T06:13:06;3.00;99.90
7576;DHT22;3829;50.798;4.358;2023-01-24T06:15:31;3.00;99.90
7576;DHT22;3829;50.798;4.358;2023-01-24T06:17:57;3.00;99.90
7576;DHT22;3829;50.798;4.358;2023-01-24T06:20:23;3.10;99.90
7576;DHT22;3829;50.798;4.358;2023-01-24T06:22:52;3.10;99.90
7576;DHT22;3829;50.798;4.358;2023-01-24T06:25:23;3.10;99.90
7576;DHT22;3829;50.798;4.358;2023-01-24T06:27:50;3.10;99.90
7576;DHT22;3829;50.798;4.358;2023-01-24T06:30:19;3.10;99.90
7576;DHT22;3829;50.798;4.358;2023-01-24T06:38:21;3.00;99.90
7576;DHT22;3829;50.798;4.358;2023-01-24T06:40:52;3.00;99.90
7576;DHT22;3829;50.798;4.358;2023-01-24T06:43:19;3.00;99.90
7576;DHT22;3829;50.798;4.358;2023-01-24T06:45:45;3.00;99.90
7576;DHT22;3829;50.798;4.358;2023-01-24T06:48:11;3.00;99.90
7576;DHT22;3829;50.798;4.358;2023-01-24T06:50:36;3.00;99.90
7576;DHT22;3829;50.798;4.358;2023-01-24T06:53:02;3.10;99.90
7576;DHT22;3829;50.798;4.358;2023-01-24T06:55:28;3.10;99.90
7576;DHT22;3829;50.798;4.358;2023-01-24T06:57:57;3.00;99.90
7576;DHT22;3829;50.798;4.358;2023-01-24T07:00:24;3.00;99.90
7576;DHT22;3829;50.798;4.358;2023-01-24T07:03:03;3.10;99.90
7576;DHT22;3829;50.798;4.358;2023-01-24T07:05:35;3.10;99.90
7576;DHT22;3829;50.798;4.358;2023-01-24T07:08:01;3.10;99.90
7576;DHT22;3829;50.798;4.358;2023-01-24T07:10:27;3.00;99.90
7576;DHT22;3829;50.798;4.358;2023-01-24T07:12:54;3.00;99.90
7576;DHT22;3829;50.798;4.358;2023-01-24T07:15:20;2.90;99.90
7576;DHT22;3829;50.798;4.358;2023-01-24T07:17:46;2.90;99.90
7576;DHT22;3829;50.798;4.358;2023-01-24T07:20:12;2.80;99.90
7576;DHT22;3829;50.798;4.358;2023-01-24T07:22:39;2.80;99.90
7576;DHT22;3829;50.798;4.358;2023-01-24T07:25:12;2.90;99.90
7576;DHT22;3829;50.798;4.358;2023-01-24T07:27:39;2.80;99.90
7576;DHT22;3829;50.798;4.358;2023-01-24T07:30:05;2.90;99.90
7576;DHT22;3829;50.798;4.358;2023-01-24T07:32:32;2.90;99.90
7576;DHT22;3829;50.798;4.358;2023-01-24T07:34:57;3.00;99.90
7576;DHT22;3829;50.798;4.358;2023-01-24T07:37:23;2.90;99.90
7576;DHT22;3829;50.798;4.358;2023-01-24T07:39:49;3.00;99.90
7576;DHT22;3829;50.798;4.358;2023-01-24T07:42:14;3.10;99.90
7576;DHT22;3829;50.798;4.358;2023-01-24T07:44:40;3.20;99.90
7576;DHT22;3829;50.798;4.358;2023-01-24T07:47:06;3.30;99.90
7576;DHT22;3829;50.798;4.358;2023-01-24T07:49:31;3.40;99.90
7576;DHT22;3829;50.798;4.358;2023-01-24T07:51:57;3.30;99.90
7576;DHT22;3829;50.798;4.358;2023-01-24T07:54:22;3.30;99.90
7576;DHT22;3829;50.798;4.358;2023-01-24T07:56:48;3.20;99.90
7576;DHT22;3829;50.798;4.358;2023-01-24T07:59:14;3.10;99.90
7576;DHT22;3829;50.798;4.358;2023-01-24T08:01:40;3.20;99.90
7576;DHT22;3829;50.798;4.358;2023-01-24T08:04:06;3.20;99.90
7576;DHT22;3829;50.798;4.358;2023-01-24T08:06:32;3.10;99.90
7576;DHT22;3829;50.798;4.358;2023-01-24T08:08:57;3.10;99.90
7576;DHT22;3829;50.798;4.358;2023-01-24T08:11:23;3.00;99.90
7576;DHT22;3829;50.798;4.358;2023-01-24T08:13:49;2.90;99.90
7576;DHT22;3829;50.798;4.358;2023-01-24T08:16:15;2.90;99.90
7576;DHT22;3829;50.798;4.358;2023-01-24T08:18:41;2.80;99.90
7576;DHT22;3829;50.798;4.358;2023-01-24T08:21:09;2.70;99.90
7576;DHT22;3829;50.798;4.358;2023-01-24T08:23:34;2.80;99.90
7576;DHT22;3829;50.798;4.358;2023-01-24T08:26:01;2.90;99.90
7576;DHT22;3829;50.798;4.358;2023-01-24T08:28:28;2.90;99.90
7576;DHT22;3829;50.798;4.358;2023-01-24T08:30:57;2.90;99.90
7576;DHT22;3829;50.798;4.358;2023-01-24T08:33:23;3.00;99.90
7576;DHT22;3829;50.798;4.358;2023-01-24T08:35:48;3.10;99.90
7576;DHT22;3829;50.798;4.358;2023-01-24T08:38:15;3.20;99.90
7576;DHT22;3829;50.798;4.358;2023-01-24T08:40:41;3.20;99.90
7576;DHT22;3829;50.798;4.358;2023-01-24T08:43:07;3.10;99.90
7576;DHT22;3829;50.798;4.358;2023-01-24T08:45:33;3.10;99.90
7576;DHT22;3829;50.798;4.358;2023-01-24T08:48:00;3.10;99.90
7576;DHT22;3829;50.798;4.358;2023-01-24T08:50:26;3.10;99.90
7576;DHT22;3829;50.798;4.358;2023-01-24T08:52:55;3.10;99.90
7576;DHT22;3829;50.798;4.358;2023-01-24T08:55:21;3.00;99.90
7576;DHT22;3829;50.798;4.358;2023-01-24T08:57:47;3.10;99.90
7576;DHT22;3829;50.798;4.358;2023-01-24T09:00:13;3.20;99.90
7576;DHT22;3829;50.798;4.358;2023-01-24T09:02:39;3.10;99.90
7576;DHT22;3829;50.798;4.358;2023-01-24T09:05:05;3.10;99.90
7576;DHT22;3829;50.798;4.358;2023-01-24T09:07:32;3.00;99.90
7576;DHT22;3829;50.798;4.358;2023-01-24T09:09:59;3.00;99.90
7576;DHT22;3829;50.798;4.358;2023-01-24T09:12:25;2.90;99.90
7576;DHT22;3829;50.798;4.358;2023-01-24T09:14:50;2.90;99.90
7576;DHT22;3829;50.798;4.358;2023-01-24T09:17:16;3.10;99.90
7576;DHT22;3829;50.798;4.358;2023-01-24T09:19:42;3.20;99.90
7576;DHT22;3829;50.798;4.358;2023-01-24T09:22:07;3.20;99.90
7576;DHT22;3829;50.798;4.358;2023-01-24T09:24:33;3.20;99.90
7576;DHT22;3829;50.798;4.358;2023-01-24T09:26:58;3.10;99.90
7576;DHT22;3829;50.798;4.358;2023-01-24T09:29:24;3.20;99.90
7576;DHT22;3829;50.798;4.358;2023-01-24T09:31:49;3.20;99.90
7576;DHT22;3829;50.798;4.358;2023-01-24T09:34:15;3.10;99.90
7576;DHT22;3829;50.798;4.358;2023-01-24T09:36:40;3.00;99.90
7576;DHT22;3829;50.798;4.358;2023-01-24T09:39:06;3.00;99.90
7576;DHT22;3829;50.798;4.358;2023-01-24T09:42:05;3.00;99.90
7576;DHT22;3829;50.798;4.358;2023-01-24T09:47:42;2.90;99.90
7576;DHT22;3829;50.798;4.358;2023-01-24T09:50:18;2.80;99.90
7576;DHT22;3829;50.798;4.358;2023-01-24T09:52:48;2.80;99.90
7576;DHT22;3829;50.798;4.358;2023-01-24T09:57:51;3.10;99.90
7576;DHT22;3829;50.798;4.358;2023-01-24T10:00:30;3.30;99.90
7576;DHT22;3829;50.798;4.358;2023-01-24T10:02:58;3.30;99.90
7576;DHT22;3829;50.798;4.358;2023-01-24T10:05:32;3.20;99.90
7576;DHT22;3829;50.798;4.358;2023-01-24T10:13:24;3.10;99.90
7576;DHT22;3829;50.798;4.358;2023-01-24T10:16:04;3.10;99.90
7576;DHT22;3829;50.798;4.358;2023-01-24T10:18:46;3.10;99.90
7576;DHT22;3829;50.798;4.358;2023-01-24T10:24:03;3.40;99.90
7576;DHT22;3829;50.798;4.358;2023-01-24T10:26:41;3.50;99.90
7576;DHT22;3829;50.798;4.358;2023-01-24T10:32:02;3.70;99.90
7576;DHT22;3829;50.798;4.358;2023-01-24T10:34:36;3.90;99.90
7576;DHT22;3829;50.798;4.358;2023-01-24T10:39:31;3.50;99.90
7576;DHT22;3829;50.798;4.358;2023-01-24T10:41:57;3.50;99.90
7576;DHT22;3829;50.798;4.358;2023-01-24T10:44:35;3.60;99.90
7576;DHT22;3829;50.798;4.358;2023-01-24T10:50:01;3.60;99.90
7576;DHT22;3829;50.798;4.358;2023-01-24T10:52:27;3.70;99.90
7576;DHT22;3829;50.798;4.358;2023-01-24T10:54:55;3.70;99.90
7576;DHT22;3829;50.798;4.358;2023-01-24T10:57:44;3.80;99.90
7576;DHT22;3829;50.798;4.358;2023-01-24T11:03:03;3.50;99.90
7576;DHT22;3829;50.798;4.358;2023-01-24T11:05:44;3.60;99.90
7576;DHT22;3829;50.798;4.358;2023-01-24T11:08:26;3.50;99.90
7576;DHT22;3829;50.798;4.358;2023-01-24T11:10:57;3.50;99.90
7576;DHT22;3829;50.798;4.358;2023-01-24T11:15:54;3.60;99.90
7576;DHT22;3829;50.798;4.358;2023-01-24T11:18:24;3.50;99.90
7576;DHT22;3829;50.798;4.358;2023-01-24T11:21:12;3.50;99.90
7576;DHT22;3829;50.798;4.358;2023-01-24T11:23:38;3.70;99.90
7576;DHT22;3829;50.798;4.358;2023-01-24T11:26:06;3.80;99.90
7576;DHT22;3829;50.798;4.358;2023-01-24T11:28:37;4.00;99.90
7576;DHT22;3829;50.798;4.358;2023-01-24T11:31:14;3.80;99.90
7576;DHT22;3829;50.798;4.358;2023-01-24T11:42:20;4.10;99.90
7576;DHT22;3829;50.798;4.358;2023-01-24T11:47:57;4.00;99.90
7576;DHT22;3829;50.798;4.358;2023-01-24T11:56:09;4.10;99.90
7576;DHT22;3829;50.798;4.358;2023-01-24T12:07:34;4.10;99.90
7576;DHT22;3829;50.798;4.358;2023-01-24T12:10:22;4.00;99.90
7576;DHT22;3829;50.798;4.358;2023-01-24T12:15:31;4.10;99.90
7576;DHT22;3829;50.798;4.358;2023-01-24T12:20:59;4.00;99.90
7576;DHT22;3829;50.798;4.358;2023-01-24T12:26:19;3.70;99.90
7576;DHT22;3829;50.798;4.358;2023-01-24T12:29:05;3.50;99.90
7576;DHT22;3829;50.798;4.358;2023-01-24T12:31:43;3.40;99.90
7576;DHT22;3829;50.798;4.358;2023-01-24T12:36:55;3.50;99.90
7576;DHT22;3829;50.798;4.358;2023-01-24T12:39:30;3.60;99.90
7576;DHT22;3829;50.798;4.358;2023-01-24T12:42:08;3.60;99.90
7576;DHT22;3829;50.798;4.358;2023-01-24T12:44:42;3.70;99.90
7576;DHT22;3829;50.798;4.358;2023-01-24T12:47:28;3.80;99.90
7576;DHT22;3829;50.798;4.358;2023-01-24T12:50:37;3.80;99.90
7576;DHT22;3829;50.798;4.358;2023-01-24T12:55:48;3.70;99.90
7576;DHT22;3829;50.798;4.358;2023-01-24T12:58:27;3.80;99.90
7576;DHT22;3829;50.798;4.358;2023-01-24T13:01:06;3.70;99.90
7576;DHT22;3829;50.798;4.358;2023-01-24T13:07:07;3.80;99.90
7576;DHT22;3829;50.798;4.358;2023-01-24T13:12:23;3.70;99.90
7576;DHT22;3829;50.798;4.358;2023-01-24T13:23:10;3.80;99.90
7576;DHT22;3829;50.798;4.358;2023-01-24T13:33:39;3.80;99.90
7576;DHT22;3829;50.798;4.358;2023-01-24T13:36:07;3.70;99.90
7576;DHT22;3829;50.798;4.358;2023-01-24T13:38:41;3.70;99.90
7576;DHT22;3829;50.798;4.358;2023-01-24T13:41:13;3.70;99.90
7576;DHT22;3829;50.798;4.358;2023-01-24T13:43:54;3.90;99.90
7576;DHT22;3829;50.798;4.358;2023-01-24T13:51:52;3.90;99.90
7576;DHT22;3829;50.798;4.358;2023-01-24T13:57:30;3.80;99.90
7576;DHT22;3829;50.798;4.358;2023-01-24T14:06:20;3.80;99.90
7576;DHT22;3829;50.798;4.358;2023-01-24T14:11:17;3.90;99.90
7576;DHT22;3829;50.798;4.358;2023-01-24T14:21:55;3.70;99.90
7576;DHT22;3829;50.798;4.358;2023-01-24T14:27:27;3.70;99.90
7576;DHT22;3829;50.798;4.358;2023-01-24T14:33:28;3.80;99.90
7576;DHT22;3829;50.798;4.358;2023-01-24T14:38:31;3.80;99.90
7576;DHT22;3829;50.798;4.358;2023-01-24T14:40:57;3.80;99.90
7576;DHT22;3829;50.798;4.358;2023-01-24T14:43:34;3.80;99.90
7576;DHT22;3829;50.798;4.358;2023-01-24T14:46:12;3.70;99.90
7576;DHT22;3829;50.798;4.358;2023-01-24T14:48:38;3.70;99.90
7576;DHT22;3829;50.798;4.358;2023-01-24T14:51:06;3.70;99.90
7576;DHT22;3829;50.798;4.358;2023-01-24T14:53:33;3.50;99.90
7576;DHT22;3829;50.798;4.358;2023-01-24T14:56:09;3.40;99.90
7576;DHT22;3829;50.798;4.358;2023-01-24T14:58:36;3.40;99.90
7576;DHT22;3829;50.798;4.358;2023-01-24T15:01:02;3.50;99.90
7576;DHT22;3829;50.798;4.358;2023-01-24T15:03:33;3.40;99.90
7576;DHT22;3829;50.798;4.358;2023-01-24T15:06:04;3.30;99.90
7576;DHT22;3829;50.798;4.358;2023-01-24T15:08:31;3.30;99.90
7576;DHT22;3829;50.798;4.358;2023-01-24T15:11:06;3.30;99.90
7576;DHT22;3829;50.798;4.358;2023-01-24T15:13:35;3.30;99.90
7576;DHT22;3829;50.798;4.358;2023-01-24T15:16:02;3.20;99.90
7576;DHT22;3829;50.798;4.358;2023-01-24T15:18:35;3.30;99.90
7576;DHT22;3829;50.798;4.358;2023-01-24T15:21:01;3.30;99.90
7576;DHT22;3829;50.798;4.358;2023-01-24T15:23:30;3.40;99.90
7576;DHT22;3829;50.798;4.358;2023-01-24T15:25:56;3.30;99.90
7576;DHT22;3829;50.798;4.358;2023-01-24T15:28:29;3.30;99.90
7576;DHT22;3829;50.798;4.358;2023-01-24T15:30:59;3.20;99.90
7576;DHT22;3829;50.798;4.358;2023-01-24T15:33:39;3.10;99.90
7576;DHT22;3829;50.798;4.358;2023-01-24T15:36:24;3.20;99.90
7576;DHT22;3829;50.798;4.358;2023-01-24T15:38:51;3.10;99.90
7576;DHT22;3829;50.798;4.358;2023-01-24T15:41:25;3.10;99.90
7576;DHT22;3829;50.798;4.358;2023-01-24T15:44:12;3.10;99.90
7576;DHT22;3829;50.798;4.358;2023-01-24T15:46:42;3.10;99.90
7576;DHT22;3829;50.798;4.358;2023-01-24T15:49:31;3.00;99.90
7576;DHT22;3829;50.798;4.358;2023-01-24T15:52:18;3.10;99.90
7576;DHT22;3829;50.798;4.358;2023-01-24T15:54:55;3.10;99.90
7576;DHT22;3829;50.798;4.358;2023-01-24T15:57:30;3.20;99.90
7576;DHT22;3829;50.798;4.358;2023-01-24T16:00:02;3.20;99.90
7576;DHT22;3829;50.798;4.358;2023-01-24T16:02:29;3.00;99.90
7576;DHT22;3829;50.798;4.358;2023-01-24T16:04:54;3.10;99.90
7576;DHT22;3829;50.798;4.358;2023-01-24T16:07:20;3.20;99.90
7576;DHT22;3829;50.798;4.358;2023-01-24T16:09:47;3.10;99.90
7576;DHT22;3829;50.798;4.358;2023-01-24T16:12:15;3.10;99.90
7576;DHT22;3829;50.798;4.358;2023-01-24T16:14:46;3.10;99.90
7576;DHT22;3829;50.798;4.358;2023-01-24T16:17:12;3.00;99.90
7576;DHT22;3829;50.798;4.358;2023-01-24T16:19:37;3.20;99.90
7576;DHT22;3829;50.798;4.358;2023-01-24T16:22:03;3.10;99.90
7576;DHT22;3829;50.798;4.358;2023-01-24T16:24:28;3.20;99.90
7576;DHT22;3829;50.798;4.358;2023-01-24T16:26:54;3.00;99.90
7576;DHT22;3829;50.798;4.358;2023-01-24T16:29:25;3.10;99.90
7576;DHT22;3829;50.798;4.358;2023-01-24T16:31:52;2.90;99.90
7576;DHT22;3829;50.798;4.358;2023-01-24T16:34:18;2.80;99.90
7576;DHT22;3829;50.798;4.358;2023-01-24T16:36:44;2.90;99.90
7576;DHT22;3829;50.798;4.358;2023-01-24T16:39:16;2.90;99.90
7576;DHT22;3829;50.798;4.358;2023-01-24T16:41:45;2.90;99.90
7576;DHT22;3829;50.798;4.358;2023-01-24T16:44:11;2.90;99.90
7576;DHT22;3829;50.798;4.358;2023-01-24T16:46:38;2.90;99.90
7576;DHT22;3829;50.798;4.358;2023-01-24T16:49:04;2.90;99.90
7576;DHT22;3829;50.798;4.358;2023-01-24T16:51:30;2.80;99.90
7576;DHT22;3829;50.798;4.358;2023-01-24T16:53:55;2.80;99.90
7576;DHT22;3829;50.798;4.358;2023-01-24T16:56:22;2.70;99.90
7576;DHT22;3829;50.798;4.358;2023-01-24T16:58:47;2.60;99.90
7576;DHT22;3829;50.798;4.358;2023-01-24T17:01:13;2.70;99.90
7576;DHT22;3829;50.798;4.358;2023-01-24T17:03:39;2.70;99.90
7576;DHT22;3829;50.798;4.358;2023-01-24T17:06:10;2.70;99.90
7576;DHT22;3829;50.798;4.358;2023-01-24T17:08:37;2.50;99.90
7576;DHT22;3829;50.798;4.358;2023-01-24T17:11:08;2.50;99.90
7576;DHT22;3829;50.798;4.358;2023-01-24T17:13:34;2.60;99.90
7576;DHT22;3829;50.798;4.358;2023-01-24T17:16:07;2.60;99.90
7576;DHT22;3829;50.798;4.358;2023-01-24T17:18:34;2.60;99.90
7576;DHT22;3829;50.798;4.358;2023-01-24T17:21:14;2.60;99.90
7576;DHT22;3829;50.798;4.358;2023-01-24T17:23:41;2.80;99.90
7576;DHT22;3829;50.798;4.358;2023-01-24T17:26:12;2.70;99.90
7576;DHT22;3829;50.798;4.358;2023-01-24T17:28:39;2.80;99.90
7576;DHT22;3829;50.798;4.358;2023-01-24T17:31:09;2.90;99.90
7576;DHT22;3829;50.798;4.358;2023-01-24T17:33:35;3.00;99.90
7576;DHT22;3829;50.798;4.358;2023-01-24T17:36:01;3.00;99.90
7576;DHT22;3829;50.798;4.358;2023-01-24T17:38:27;3.00;99.90
7576;DHT22;3829;50.798;4.358;2023-01-24T17:40:52;3.00;99.90
7576;DHT22;3829;50.798;4.358;2023-01-24T17:43:18;3.10;99.90
7576;DHT22;3829;50.798;4.358;2023-01-24T17:45:55;3.10;99.90
7576;DHT22;3829;50.798;4.358;2023-01-24T17:48:21;3.10;99.90
7576;DHT22;3829;50.798;4.358;2023-01-24T17:50:48;3.00;99.90
7576;DHT22;3829;50.798;4.358;2023-01-24T17:53:15;3.00;99.90
7576;DHT22;3829;50.798;4.358;2023-01-24T17:55:41;3.00;99.90
7576;DHT22;3829;50.798;4.358;2023-01-24T17:58:08;3.00;99.90
7576;DHT22;3829;50.798;4.358;2023-01-24T18:00:34;3.10;99.90
7576;DHT22;3829;50.798;4.358;2023-01-24T18:02:59;3.00;99.90
7576;DHT22;3829;50.798;4.358;2023-01-24T18:05:25;3.20;99.90
7576;DHT22;3829;50.798;4.358;2023-01-24T18:07:50;3.20;99.90
7576;DHT22;3829;50.798;4.358;2023-01-24T18:10:16;3.20;99.90
7576;DHT22;3829;50.798;4.358;2023-01-24T18:12:42;3.00;99.90
7576;DHT22;3829;50.798;4.358;2023-01-24T18:15:09;3.00;99.90
7576;DHT22;3829;50.798;4.358;2023-01-24T18:17:36;3.10;99.90
7576;DHT22;3829;50.798;4.358;2023-01-24T18:20:02;3.00;99.90
7576;DHT22;3829;50.798;4.358;2023-01-24T18:22:29;3.20;99.90
7576;DHT22;3829;50.798;4.358;2023-01-24T18:24:54;3.10;99.90
7576;DHT22;3829;50.798;4.358;2023-01-24T18:27:20;3.00;99.90
7576;DHT22;3829;50.798;4.358;2023-01-24T18:29:47;2.90;99.90
7576;DHT22;3829;50.798;4.358;2023-01-24T18:32:13;2.90;99.90
7576;DHT22;3829;50.798;4.358;2023-01-24T18:34:38;2.80;99.90
7576;DHT22;3829;50.798;4.358;2023-01-24T18:37:04;2.80;99.90
7576;DHT22;3829;50.798;4.358;2023-01-24T18:39:30;2.80;99.90
7576;DHT22;3829;50.798;4.358;2023-01-24T18:41:55;2.70;99.90
7576;DHT22;3829;50.798;4.358;2023-01-24T18:44:21;2.80;99.90
7576;DHT22;3829;50.798;4.358;2023-01-24T18:46:46;2.90;99.90
7576;DHT22;3829;50.798;4.358;2023-01-24T18:49:12;3.10;99.90